Airfield :
LOGIN :

Register | Disclaimer

   EN    FR    IT 

 










Legend :    VFR   Marginal VFR   IFR   Intensive IFR   Very Intensive IFR
Visi :
Ceiling :
>= 8 km
>= 3000ft
5 to 8 km
1000 to 3000 ft
1500m to 5 km
500 to 1000 ft
800 to 1500m
200 to 500 ft
< 800m
< 200 ft
Symbols :   Thunderstorms  Fog  Heavy snow  Heavy precipitations  Wind > 20 kt
SIGMETs :     Misc.  Thunderstorms  Icing  Turbulence  Mountain Waves  Volcanic Ashes






- Airport Elevation : 598 ft
- IATA code : BQH


EGKB - Biggin Hill

CURRENT METAR :
  • 101250Z 19026KT 3000 RADZ BKN007 08/07 Q1012

EXPIRED METARs :
  • 101220Z 19025G36KT 9000 VCSH BKN010 08/07 Q1013 RERA
  • 101150Z 19026G37KT 5000 RA BKN010 08/07 Q1014
  • 101120Z 19028KT 7000 RADZ BKN011 08/07 Q1015
  • 101050Z 19025G36KT 8000 RADZ BKN013 08/06 Q1015
  • 101020Z 19022G33KT 9999 VCSH SCT015 BKN020 08/06 Q1016

TAF TAF EGKB
Valid from the 10 at 12:00 until the 10 at 21:00 UTC


101107Z 1012/1021 19015G25KT 9999 BKN015
BECMG 1012/1015 20020G38KT
TEMPO 1012/1021 5000 RADZ BKN009
PROB30
TEMPO 1017/1021 23025G43KT 3000 +RA BKN004



MET'MAP, your aeronautical weather chart ! - Copyright ORBIFLY December 2007 - Disclaimer

ORBIFLY MET'MAP TEAM :

Programming & Development : Alexandra Zaïnal
Concept & original design : Baudouin d'Aumeries
Assistance for programming : Marc-Olivier Méhu
Technical & hardware support : Manuel Goepfert

Contact : metmap@orbifly.com




SOURCES & CREDITS :

   NOAA